createdAt,value
2023-04-07T00:01:18.132Z,101716.41
2023-04-07T00:03:44.943Z,101599.69
2023-04-07T00:06:11.578Z,101703.16
2023-04-07T00:08:38.506Z,101706.06
2023-04-07T00:11:05.564Z,101718.66
2023-04-07T00:13:32.254Z,101685.44
2023-04-07T00:15:58.894Z,101712.91
2023-04-07T00:18:25.570Z,101712.84
2023-04-07T00:20:52.147Z,101707.72
2023-04-07T00:23:18.750Z,101715.97
2023-04-07T00:25:45.476Z,101715.47
2023-04-07T00:28:12.097Z,101717.44
2023-04-07T00:30:38.619Z,101711.25
2023-04-07T00:33:05.279Z,101714.69
2023-04-07T00:35:36.642Z,101717.81
2023-04-07T00:38:03.609Z,101636.22
2023-04-07T00:40:30.266Z,101710.31
2023-04-07T00:42:57.418Z,101636.81
2023-04-07T00:45:24.014Z,101717.38
2023-04-07T00:47:50.993Z,101707.50
2023-04-07T00:53:08.056Z,101695.75
2023-04-07T00:55:34.825Z,101717.81
2023-04-07T00:58:01.446Z,101702.91
2023-04-07T01:00:28.418Z,101714.59
2023-04-07T01:03:02.132Z,101716.97
2023-04-07T01:05:54.786Z,101709.88
2023-04-07T01:08:27.239Z,101696.88
2023-04-07T01:10:59.616Z,101705.53
2023-04-07T01:13:32.273Z,101715.53
2023-04-07T01:16:04.326Z,101682.00
2023-04-07T01:18:36.878Z,101719.34
2023-04-07T01:21:07.763Z,101713.91
2023-04-07T01:23:52.117Z,101709.66
2023-04-07T01:26:33.697Z,101708.78
2023-04-07T01:29:26.312Z,101709.72
2023-04-07T01:31:56.121Z,101712.38
2023-04-07T01:34:26.147Z,101702.81
2023-04-07T01:36:54.664Z,101682.31
2023-04-07T01:39:21.937Z,101707.56
2023-04-07T01:41:51.573Z,101714.34
2023-04-07T01:44:19.727Z,101662.75
2023-04-07T01:46:46.755Z,101712.91
2023-04-07T01:49:14.342Z,101712.81
2023-04-07T01:51:42.493Z,101708.84
2023-04-07T01:54:09.705Z,101666.97
2023-04-07T01:56:36.251Z,101697.09
2023-04-07T01:59:02.800Z,101716.69
2023-04-07T02:01:29.924Z,101643.94
2023-04-07T02:04:05.421Z,101718.72
2023-04-07T02:06:37.884Z,101713.31
2023-04-07T02:09:08.041Z,101722.19
2023-04-07T02:11:37.517Z,101716.56
2023-04-07T02:14:06.589Z,101664.28
2023-04-07T02:16:33.575Z,101720.44
2023-04-07T02:19:00.438Z,101733.69
2023-04-07T02:21:28.442Z,101722.47
2023-04-07T02:23:55.334Z,101716.97
2023-04-07T02:26:22.201Z,101709.69
2023-04-07T02:28:48.757Z,101720.97
2023-04-07T02:31:15.389Z,101721.31
2023-04-07T02:33:42.012Z,101721.03
2023-04-07T02:36:08.639Z,101686.34
2023-04-07T02:38:35.209Z,101528.59
2023-04-07T02:41:01.826Z,101731.84
2023-04-07T02:43:28.433Z,101732.50
2023-04-07T02:45:55.304Z,101731.84
2023-04-07T02:48:21.901Z,101735.19
2023-04-07T02:50:48.538Z,101736.28
2023-04-07T02:53:15.185Z,101719.25
2023-04-07T02:55:42.056Z,101708.22
2023-04-07T02:58:08.696Z,101741.13
2023-04-07T03:00:35.400Z,101737.06
2023-04-07T03:03:02.204Z,101737.06
2023-04-07T03:05:29.023Z,101741.13
2023-04-07T03:07:55.618Z,101727.13
2023-04-07T03:10:22.188Z,101733.31
2023-04-07T03:12:49.638Z,101682.03
2023-04-07T03:15:18.634Z,101713.09
2023-04-07T03:17:46.081Z,101742.94
2023-04-07T03:20:13.245Z,101739.47
2023-04-07T03:22:39.866Z,101692.63
2023-04-07T03:25:06.829Z,101744.94
2023-04-07T03:27:33.442Z,101737.94
2023-04-07T03:30:00.015Z,101736.00
2023-04-07T03:32:26.776Z,101748.06
2023-04-07T03:34:53.444Z,101702.09
2023-04-07T03:37:20.053Z,101707.84
2023-04-07T03:39:46.673Z,101743.53
2023-04-07T03:42:13.390Z,101745.84
2023-04-07T03:44:39.982Z,101751.66
2023-04-07T03:47:06.557Z,101754.06
2023-04-07T03:49:33.515Z,101750.84
2023-04-07T03:52:00.091Z,101751.09
2023-04-07T03:54:26.799Z,101751.19
2023-04-07T03:56:53.446Z,101740.03
2023-04-07T03:59:20.071Z,101766.19
2023-04-07T04:01:46.703Z,101767.13
2023-04-07T04:04:13.497Z,101726.66
2023-04-07T04:06:40.434Z,101768.78
2023-04-07T04:09:06.985Z,101770.28
2023-04-07T04:11:33.647Z,101736.88
2023-04-07T04:14:00.361Z,101781.94
2023-04-07T04:16:27.094Z,101736.84
2023-04-07T04:18:53.658Z,101766.84
2023-04-07T04:21:20.370Z,101781.03
2023-04-07T04:23:47.180Z,101775.09
2023-04-07T04:26:13.717Z,101766.47
2023-04-07T04:28:40.527Z,101765.72
2023-04-07T04:31:07.112Z,101785.75
2023-04-07T04:33:33.859Z,101791.72
2023-04-07T04:36:00.436Z,101787.47
2023-04-07T04:38:27.278Z,101764.78
2023-04-07T04:40:54.033Z,101796.16
2023-04-07T04:43:20.578Z,101791.53
2023-04-07T04:45:47.692Z,101795.91
2023-04-07T04:48:14.306Z,101792.81
2023-04-07T04:50:42.445Z,101793.69
2023-04-07T04:53:10.365Z,101814.81
2023-04-07T04:55:37.270Z,101798.75
2023-04-07T04:58:03.812Z,101810.31
2023-04-07T05:00:30.410Z,101819.16
2023-04-07T05:02:57.263Z,101810.38
2023-04-07T05:05:24.059Z,101809.38
2023-04-07T05:07:51.051Z,101812.59
2023-04-07T05:10:17.850Z,101820.59
2023-04-07T05:12:44.939Z,101816.81
2023-04-07T05:15:11.885Z,101821.47
2023-04-07T05:17:38.567Z,101831.47
2023-04-07T05:20:05.766Z,101811.34
2023-04-07T05:22:32.353Z,101835.84
2023-04-07T05:24:58.903Z,101832.28
2023-04-07T05:27:25.801Z,101769.56
2023-04-07T05:29:52.613Z,101838.91
2023-04-07T05:32:19.736Z,101816.81
2023-04-07T05:34:46.334Z,101829.81
2023-04-07T05:37:12.883Z,101848.25
2023-04-07T05:39:39.569Z,101852.03
2023-04-07T05:42:06.435Z,101850.84
2023-04-07T05:44:33.046Z,101842.00
2023-04-07T05:46:59.603Z,101793.56
2023-04-07T05:49:26.623Z,101863.81
2023-04-07T05:51:53.216Z,101694.00
2023-04-07T05:54:19.824Z,101869.03
2023-04-07T05:56:46.441Z,101876.09
2023-04-07T05:59:12.983Z,101878.50
2023-04-07T06:01:39.627Z,101881.00
2023-04-07T06:04:06.356Z,101874.47
2023-04-07T06:06:33.050Z,101888.03
2023-04-07T06:08:59.881Z,101865.91
2023-04-07T06:11:27.514Z,101880.06
2023-04-07T06:13:54.412Z,101881.50
2023-04-07T06:16:21.457Z,101874.97
2023-04-07T06:18:48.045Z,101890.16
2023-04-07T06:21:14.683Z,101869.88
2023-04-07T06:23:42.524Z,101897.94
2023-04-07T06:26:12.017Z,101899.97
2023-04-07T06:28:39.197Z,101896.44
2023-04-07T06:31:06.350Z,101893.88
2023-04-07T06:33:32.948Z,101912.66
2023-04-07T06:35:59.563Z,101903.84
2023-04-07T06:38:26.556Z,101899.69
2023-04-07T06:40:53.143Z,101921.84
2023-04-07T06:43:19.748Z,101908.75
2023-04-07T06:45:46.571Z,101913.09
2023-04-07T06:48:13.248Z,101912.53
2023-04-07T06:50:39.848Z,101852.50
2023-04-07T06:53:06.497Z,101919.31
2023-04-07T06:55:33.168Z,101914.44
2023-04-07T06:57:59.704Z,101921.78
2023-04-07T07:00:27.330Z,101862.66
2023-04-07T07:02:53.954Z,101912.13
2023-04-07T07:05:20.675Z,101919.91
2023-04-07T07:07:47.251Z,101925.34
2023-04-07T07:10:14.005Z,101882.16
2023-04-07T07:12:40.945Z,101911.13
2023-04-07T07:15:08.160Z,101910.34
2023-04-07T07:17:35.347Z,101872.63
2023-04-07T07:20:02.110Z,101879.53
2023-04-07T07:22:28.803Z,101918.41
2023-04-07T07:24:55.379Z,101873.97
2023-04-07T07:27:22.022Z,101920.44
2023-04-07T07:29:48.609Z,101921.44
2023-04-07T07:32:15.167Z,101914.34
2023-04-07T07:34:41.829Z,101925.34
2023-04-07T07:37:08.454Z,101877.38
2023-04-07T07:39:35.125Z,101933.50
2023-04-07T07:42:01.744Z,101926.72
2023-04-07T07:44:29.319Z,101910.09
2023-04-07T07:46:57.352Z,101932.38
2023-04-07T07:49:23.932Z,101940.16
2023-04-07T07:51:50.479Z,101949.44
2023-04-07T07:54:17.058Z,101904.09
2023-04-07T07:56:43.613Z,101940.31
2023-04-07T07:59:10.144Z,101947.28
2023-04-07T08:01:36.754Z,101944.19
2023-04-07T08:04:03.949Z,101881.28
2023-04-07T08:06:31.657Z,101948.59
2023-04-07T08:08:58.975Z,101938.19
2023-04-07T08:11:25.808Z,101905.38
2023-04-07T08:13:54.059Z,101952.13
2023-04-07T08:16:22.312Z,101955.72
2023-04-07T08:18:49.534Z,101959.25
2023-04-07T08:21:16.470Z,101966.25
2023-04-07T08:23:43.662Z,101914.66
2023-04-07T08:26:10.573Z,101958.44
2023-04-07T08:28:37.197Z,101955.84
2023-04-07T08:31:03.844Z,101944.41
2023-04-07T08:33:30.717Z,101901.56
2023-04-07T08:35:57.716Z,101964.53
2023-04-07T08:38:24.425Z,101947.59
2023-04-07T08:40:58.527Z,101956.47
2023-04-07T08:43:27.126Z,101950.59
2023-04-07T08:45:56.848Z,101960.09
2023-04-07T08:48:27.528Z,101967.97
2023-04-07T08:50:55.257Z,101964.41
2023-04-07T08:53:29.881Z,101956.34
2023-04-07T08:55:56.769Z,101966.97
2023-04-07T08:58:24.050Z,101971.44
2023-04-07T09:00:51.737Z,101960.06
2023-04-07T09:03:19.680Z,101960.19
2023-04-07T09:05:46.694Z,101950.63
2023-04-07T09:08:13.390Z,101893.84
2023-04-07T09:10:39.984Z,101961.22
2023-04-07T09:13:06.860Z,101958.53
2023-04-07T09:15:33.880Z,101939.13
2023-04-07T09:18:00.755Z,101928.31
2023-04-07T09:20:27.438Z,101962.09
2023-04-07T09:22:54.191Z,101892.00
2023-04-07T09:25:24.108Z,101974.59
2023-04-07T09:28:04.421Z,101945.59
2023-04-07T09:30:33.033Z,101961.75
2023-04-07T09:33:01.337Z,101935.09
2023-04-07T09:35:28.961Z,101869.25
2023-04-07T09:38:05.737Z,101964.53
2023-04-07T09:40:32.925Z,101956.47
2023-04-07T09:43:00.096Z,101955.34
2023-04-07T09:45:34.725Z,101953.66
2023-04-07T09:48:17.985Z,101926.22
2023-04-07T09:50:49.598Z,101955.91
2023-04-07T09:53:17.319Z,101945.06
2023-04-07T09:55:45.349Z,101871.78
2023-04-07T09:58:14.066Z,101947.44
2023-04-07T10:00:42.117Z,101937.66
2023-04-07T10:03:09.223Z,101876.66
2023-04-07T10:05:39.122Z,101947.19
2023-04-07T10:08:06.927Z,101920.34
2023-04-07T10:10:35.413Z,101945.44
2023-04-07T10:13:06.440Z,101954.75
2023-04-07T10:15:33.499Z,101865.34
2023-04-07T10:18:01.029Z,101957.66
2023-04-07T10:20:29.247Z,101946.28
2023-04-07T10:23:04.474Z,101953.09
2023-04-07T10:25:31.675Z,101931.44
2023-04-07T10:28:06.947Z,101947.41
2023-04-07T10:30:34.706Z,101946.41
2023-04-07T10:33:01.443Z,101815.41
2023-04-07T10:35:29.854Z,101939.72
2023-04-07T10:38:10.942Z,101950.72
2023-04-07T10:40:38.525Z,101950.84
2023-04-07T10:43:11.480Z,101953.72
2023-04-07T10:45:47.236Z,101949.66
2023-04-07T10:48:16.654Z,101937.19
2023-04-07T10:50:43.331Z,101903.59
2023-04-07T10:53:13.767Z,101946.75
2023-04-07T10:55:45.130Z,101942.78
2023-04-07T10:58:25.114Z,101954.66
2023-04-07T11:01:01.324Z,101945.34
2023-04-07T11:03:29.630Z,101931.97
2023-04-07T11:06:15.044Z,101925.78
2023-04-07T11:08:48.964Z,101901.81
2023-04-07T11:11:19.834Z,101932.03
2023-04-07T11:13:51.490Z,101910.28
2023-04-07T11:16:20.502Z,101924.38
2023-04-07T11:18:51.006Z,101917.63
2023-04-07T11:21:20.386Z,101922.09
2023-04-07T11:23:48.397Z,101929.63
2023-04-07T11:26:16.195Z,101930.56
2023-04-07T11:28:47.728Z,101937.00
2023-04-07T11:31:23.473Z,101932.78
2023-04-07T11:34:02.031Z,101928.28
2023-04-07T11:36:41.993Z,101930.81
2023-04-07T11:39:20.685Z,101924.28
2023-04-07T11:41:49.398Z,101934.06
2023-04-07T11:44:16.333Z,101926.50
2023-04-07T11:47:00.213Z,101941.25
2023-04-07T11:49:28.879Z,101936.53
2023-04-07T11:52:02.081Z,101934.16
2023-04-07T11:54:48.042Z,101934.16
2023-04-07T11:57:15.084Z,101944.91
2023-04-07T11:59:42.173Z,101939.13
2023-04-07T12:02:09.768Z,101947.81
2023-04-07T12:04:40.437Z,101943.44
2023-04-07T12:07:09.365Z,101937.56
2023-04-07T12:09:36.564Z,101951.63
2023-04-07T12:12:06.470Z,101946.81
2023-04-07T12:14:33.837Z,101940.25
2023-04-07T12:17:03.598Z,101945.16
2023-04-07T12:19:36.133Z,101927.09
2023-04-07T12:22:03.680Z,101942.25
2023-04-07T12:24:32.450Z,101918.56
2023-04-07T12:26:59.742Z,101953.25
2023-04-07T12:29:26.506Z,101949.59
2023-04-07T12:31:53.141Z,101944.03
2023-04-07T12:34:19.920Z,101952.06
2023-04-07T12:36:46.523Z,101940.50
2023-04-07T12:39:13.356Z,101896.03
2023-04-07T12:41:40.197Z,101940.59
2023-04-07T12:44:07.115Z,101943.13
2023-04-07T12:46:33.940Z,101955.22
2023-04-07T12:49:01.273Z,101948.31
2023-04-07T12:51:28.632Z,101936.50
2023-04-07T12:53:55.251Z,101915.13
2023-04-07T12:56:24.635Z,101933.88
2023-04-07T12:58:51.486Z,101935.19
2023-04-07T13:01:18.251Z,101913.91
2023-04-07T13:03:45.301Z,101884.41
2023-04-07T13:06:12.405Z,101927.09
2023-04-07T13:08:41.303Z,101940.03
2023-04-07T13:11:08.276Z,101897.91
2023-04-07T13:13:34.904Z,101923.19
2023-04-07T13:16:02.113Z,101881.00
2023-04-07T13:18:28.853Z,101926.91
2023-04-07T13:21:26.395Z,101883.88
2023-04-07T13:23:43.848Z,101933.53
2023-04-07T13:26:10.997Z,101926.44
2023-04-07T13:28:38.199Z,101920.31
2023-04-07T13:31:04.907Z,101926.69
2023-04-07T13:33:31.556Z,101895.25
2023-04-07T13:35:58.124Z,101927.59
2023-04-07T13:38:24.712Z,101927.78
2023-04-07T13:40:51.309Z,101929.03
2023-04-07T13:43:19.175Z,101907.88
2023-04-07T13:45:46.775Z,101926.03
2023-04-07T13:48:13.799Z,101924.91
2023-04-07T13:50:41.075Z,101924.53
2023-04-07T13:53:07.690Z,101922.88
2023-04-07T13:55:34.297Z,101880.66
2023-04-07T13:58:01.070Z,101931.88
2023-04-07T14:00:27.738Z,101924.75
2023-04-07T14:02:56.376Z,101929.03
2023-04-07T14:05:23.829Z,101911.47
2023-04-07T14:07:51.278Z,101912.97
2023-04-07T14:10:18.155Z,101882.41
2023-04-07T14:12:44.874Z,101911.94
2023-04-07T14:15:11.955Z,101917.78
2023-04-07T14:17:38.747Z,101911.13
2023-04-07T14:20:06.204Z,101910.41
2023-04-07T14:22:32.758Z,101916.75
2023-04-07T14:24:59.865Z,101917.34
2023-04-07T14:27:27.088Z,101928.25
2023-04-07T14:29:56.298Z,101866.06
2023-04-07T14:32:22.863Z,101923.81
2023-04-07T14:34:49.683Z,101924.16
2023-04-07T14:37:18.249Z,101895.72
2023-04-07T14:39:51.765Z,101937.81
2023-04-07T14:42:29.899Z,101943.41
2023-04-07T14:44:56.809Z,101944.22
2023-04-07T14:47:23.766Z,101950.44
2023-04-07T14:49:53.040Z,101947.22
2023-04-07T14:52:20.864Z,101908.66
2023-04-07T14:54:47.828Z,101907.28
2023-04-07T14:57:14.527Z,101964.22
2023-04-07T14:59:41.311Z,101981.09
2023-04-07T15:02:08.026Z,101972.72
2023-04-07T15:04:34.897Z,101983.66
2023-04-07T15:07:01.626Z,101994.88
2023-04-07T15:09:28.188Z,101986.75
2023-04-07T15:11:56.495Z,101988.31
2023-04-07T15:14:23.113Z,101992.97
2023-04-07T15:16:50.690Z,101993.16
2023-04-07T15:19:17.332Z,101979.59
2023-04-07T15:21:43.883Z,101997.41
2023-04-07T15:24:10.425Z,102005.25
2023-04-07T15:26:37.257Z,101981.25
2023-04-07T15:29:03.897Z,101991.09
2023-04-07T15:31:30.595Z,101991.03
2023-04-07T15:33:57.182Z,101927.09
2023-04-07T15:36:23.814Z,101980.84
2023-04-07T15:38:50.508Z,101994.50
2023-04-07T15:41:17.452Z,101954.94
2023-04-07T15:43:44.084Z,102002.19
2023-04-07T15:46:11.133Z,101986.75
2023-04-07T15:48:37.657Z,102022.56
2023-04-07T15:51:04.415Z,102022.25
2023-04-07T15:53:31.174Z,102023.31
2023-04-07T15:56:01.682Z,102031.75
2023-04-07T15:58:28.325Z,102026.66
2023-04-07T16:00:55.114Z,102032.94
2023-04-07T16:03:22.419Z,102032.28
2023-04-07T16:05:51.214Z,102025.41
2023-04-07T16:08:17.984Z,102037.88
2023-04-07T16:10:44.961Z,102040.81
2023-04-07T16:13:11.739Z,101984.88
2023-04-07T16:15:41.242Z,102019.63
2023-04-07T16:18:10.268Z,102036.69
2023-04-07T16:20:36.858Z,102032.31
2023-04-07T16:23:03.874Z,101974.91
2023-04-07T16:25:30.965Z,102015.19
2023-04-07T16:27:57.599Z,102047.44
2023-04-07T16:30:25.443Z,102011.81
2023-04-07T16:32:52.345Z,102016.94
2023-04-07T16:35:19.173Z,102055.63
2023-04-07T16:37:46.752Z,102060.91
2023-04-07T16:40:13.935Z,102017.03
2023-04-07T16:42:41.032Z,102065.69
2023-04-07T16:45:08.653Z,102051.16
2023-04-07T16:47:35.842Z,102075.50
2023-04-07T16:50:04.256Z,102075.97
2023-04-07T16:52:31.481Z,102079.47
2023-04-07T16:54:58.431Z,102077.91
2023-04-07T16:57:25.133Z,102079.72
2023-04-07T16:59:51.789Z,102097.28
2023-04-07T17:02:18.787Z,102093.97
2023-04-07T17:04:45.603Z,102100.31
2023-04-07T17:07:12.516Z,102097.16
2023-04-07T17:09:39.742Z,102071.03
2023-04-07T17:12:06.593Z,102105.59
2023-04-07T17:14:33.841Z,102105.69
2023-04-07T17:17:01.161Z,102074.06
2023-04-07T17:19:27.918Z,102056.59
2023-04-07T17:21:54.597Z,102018.03
2023-04-07T17:24:21.306Z,102085.31
2023-04-07T17:26:48.057Z,102131.78
2023-04-07T17:29:16.115Z,102131.47
2023-04-07T17:31:43.114Z,102140.03
2023-04-07T17:34:11.063Z,102143.84
2023-04-07T17:36:38.124Z,102133.38
2023-04-07T17:39:05.515Z,102136.16
2023-04-07T17:41:35.077Z,102092.56
2023-04-07T17:44:02.203Z,102131.06
2023-04-07T17:46:29.257Z,102148.19
2023-04-07T17:48:59.161Z,102075.13
2023-04-07T17:51:26.734Z,102125.19
2023-04-07T17:53:53.899Z,102167.34
2023-04-07T17:56:24.026Z,102150.44
2023-04-07T17:58:50.666Z,102151.47
2023-04-07T18:01:18.015Z,102158.97
2023-04-07T18:03:44.767Z,102184.53
2023-04-07T18:06:16.655Z,102188.75
2023-04-07T18:08:46.293Z,102176.81
2023-04-07T18:11:13.107Z,102179.09
2023-04-07T18:13:39.777Z,102180.13
2023-04-07T18:16:09.772Z,102184.19
2023-04-07T18:18:38.172Z,102177.00
2023-04-07T18:21:06.665Z,102166.81
2023-04-07T18:23:33.519Z,102188.06
2023-04-07T18:26:03.860Z,102190.41
2023-04-07T18:28:30.802Z,102191.03
2023-04-07T18:31:02.575Z,102162.47
2023-04-07T18:33:33.143Z,102198.16
2023-04-07T18:36:05.007Z,102197.28
2023-04-07T18:38:31.849Z,102215.13
2023-04-07T18:40:58.810Z,102160.59
2023-04-07T18:43:26.573Z,102210.56
2023-04-07T18:45:53.089Z,102202.44
2023-04-07T18:48:20.078Z,102212.28
2023-04-07T18:50:51.492Z,102218.03
2023-04-07T18:53:19.299Z,102222.69
2023-04-07T18:55:46.188Z,102218.78
2023-04-07T18:58:12.851Z,102220.16
2023-04-07T19:00:39.482Z,102208.84
2023-04-07T19:03:06.307Z,102221.91
2023-04-07T19:05:33.303Z,102218.84
2023-04-07T19:08:00.467Z,102229.34
2023-04-07T19:10:27.236Z,102217.88
2023-04-07T19:12:53.772Z,102237.53
2023-04-07T19:15:20.797Z,102244.81
2023-04-07T19:17:47.693Z,102246.16
2023-04-07T19:20:14.357Z,102228.69
2023-04-07T19:22:40.896Z,102242.31
2023-04-07T19:25:07.931Z,102188.28
2023-04-07T19:27:34.765Z,102187.88
2023-04-07T19:30:01.360Z,102248.56
2023-04-07T19:32:28.530Z,102247.44
2023-04-07T19:34:55.124Z,102254.22
2023-04-07T19:37:21.726Z,102257.72
2023-04-07T19:40:01.783Z,102202.19
2023-04-07T19:42:37.005Z,102250.28
2023-04-07T19:45:07.354Z,102250.28
2023-04-07T19:47:35.398Z,102236.69
2023-04-07T19:50:02.499Z,102260.34
2023-04-07T19:52:31.012Z,102250.28
2023-04-07T19:54:58.645Z,102253.25
2023-04-07T19:57:25.489Z,102234.94
2023-04-07T19:59:52.124Z,102232.25
2023-04-07T20:02:18.765Z,102258.63
2023-04-07T20:04:46.073Z,102256.03
2023-04-07T20:07:12.922Z,102248.94
2023-04-07T20:09:39.588Z,102260.38
2023-04-07T20:12:06.370Z,102260.78
2023-04-07T20:14:32.975Z,102270.50
2023-04-07T20:16:59.898Z,102257.81
2023-04-07T20:19:26.735Z,102264.91
2023-04-07T20:21:53.448Z,102268.31
2023-04-07T20:24:20.114Z,102252.66
2023-04-07T20:26:46.709Z,102239.34
2023-04-07T20:29:13.340Z,102271.97
2023-04-07T20:31:41.278Z,102272.19
2023-04-07T20:34:07.877Z,102269.81
2023-04-07T20:36:34.483Z,102262.91
2023-04-07T20:39:01.481Z,102273.28
2023-04-07T20:41:28.830Z,102281.69
2023-04-07T20:43:55.941Z,102259.00
2023-04-07T20:46:22.626Z,102227.72
2023-04-07T20:48:49.412Z,102281.19
2023-04-07T20:51:16.821Z,102287.34
2023-04-07T20:53:43.433Z,102268.19
2023-04-07T20:56:10.882Z,102254.72
2023-04-07T20:58:37.428Z,102247.41
2023-04-07T21:01:04.052Z,102274.13
2023-04-07T21:03:31.259Z,102234.31
2023-04-07T21:05:58.065Z,102285.31
2023-04-07T21:08:24.763Z,102281.69
2023-04-07T21:10:52.649Z,102262.47
2023-04-07T21:13:20.062Z,102225.44
2023-04-07T21:15:46.636Z,102271.22
2023-04-07T21:18:13.513Z,102232.41
2023-04-07T21:20:40.164Z,102282.03
2023-04-07T21:23:10.709Z,102278.97
2023-04-07T21:25:38.317Z,102290.22
2023-04-07T21:28:05.776Z,102235.75
2023-04-07T21:30:33.354Z,102286.97
2023-04-07T21:33:00.144Z,102226.31
2023-04-07T21:35:28.883Z,102284.81
2023-04-07T21:37:55.878Z,102286.28
2023-04-07T21:40:22.455Z,102278.16
2023-04-07T21:42:49.151Z,102249.88
2023-04-07T21:45:16.305Z,102286.56
2023-04-07T21:47:43.076Z,102289.72
2023-04-07T21:50:10.213Z,102252.09
2023-04-07T21:52:36.994Z,102248.94
2023-04-07T21:55:04.127Z,102268.19
2023-04-07T21:57:30.905Z,102282.91
2023-04-07T21:59:57.475Z,102281.38
2023-04-07T22:02:24.156Z,102280.81
2023-04-07T22:04:50.872Z,102097.41
2023-04-07T22:07:17.491Z,102216.53
2023-04-07T22:09:44.078Z,102259.38
2023-04-07T22:12:10.942Z,102266.69
2023-04-07T22:14:37.616Z,102285.91
2023-04-07T22:17:04.282Z,102281.75
2023-04-07T22:19:31.198Z,102247.03
2023-04-07T22:21:57.761Z,102248.06
2023-04-07T22:24:24.318Z,102287.56
2023-04-07T22:26:51.091Z,102289.03
2023-04-07T22:29:17.742Z,102280.44
2023-04-07T22:31:44.513Z,102287.03
2023-04-07T22:34:11.537Z,102277.22
2023-04-07T22:36:38.099Z,102287.50
2023-04-07T22:39:04.763Z,102284.00
2023-04-07T22:41:31.500Z,102287.84
2023-04-07T22:43:58.141Z,102289.34
2023-04-07T22:46:27.687Z,102289.28
2023-04-07T22:48:54.381Z,102292.63
2023-04-07T22:51:21.355Z,102284.81
2023-04-07T22:53:48.193Z,102286.84
2023-04-07T22:56:14.885Z,102290.97
2023-04-07T22:58:41.607Z,102191.84
2023-04-07T23:01:08.226Z,102253.28
2023-04-07T23:03:34.831Z,102222.78
2023-04-07T23:06:02.694Z,102291.97
2023-04-07T23:08:29.309Z,102200.69
2023-04-07T23:10:55.836Z,102240.41
2023-04-07T23:13:22.489Z,102217.19
2023-04-07T23:15:49.069Z,102256.84
2023-04-07T23:18:15.822Z,102290.81
2023-04-07T23:20:42.997Z,102292.50
2023-04-07T23:23:09.638Z,102281.59
2023-04-07T23:25:36.306Z,102268.78
2023-04-07T23:28:03.091Z,102222.31
2023-04-07T23:30:29.834Z,102217.78
2023-04-07T23:32:56.808Z,102260.22
2023-04-07T23:35:23.354Z,102296.03
2023-04-07T23:37:49.885Z,102279.31
2023-04-07T23:40:16.752Z,102297.84
2023-04-07T23:42:43.357Z,102298.19
2023-04-07T23:45:10.602Z,102248.78
2023-04-07T23:47:37.219Z,102304.06
2023-04-07T23:50:04.067Z,102292.84
2023-04-07T23:52:31.170Z,102300.75
2023-04-07T23:54:57.815Z,102236.53
2023-04-07T23:57:24.385Z,102298.84
2023-04-07T23:59:50.938Z,102290.19
